Time;durP1;ratioP1;P1;durP2;ratioP2;P2;SDS_P1;SDS_P2;PMS_P1;PMS_P2;Temp;Humidity;BMP_temperature;BMP_pressure;BME280_temperature;BME280_humidity;BME280_pressure;Samples;Min_cycle;Max_cycle;Signal;HPM_P1;HPM_P2
2021/01/22 03:47:43;;;;;;;3.63;2.80;;;6.30;96.70;;;;;;4958763;28;87076;-82
2021/01/22 03:50:09;;;;;;;4.20;2.22;;;6.30;96.50;;;;;;4965485;28;88535;-84
2021/01/22 03:52:36;;;;;;;3.85;3.63;;;6.40;96.10;;;;;;4964803;28;88079;-84
2021/01/22 03:55:02;;;;;;;3.50;3.30;;;6.70;94.00;;;;;;4965143;28;89366;-84
2021/01/22 03:57:28;;;;;;;2.92;2.83;;;7.00;93.60;;;;;;4963461;28;86923;-84
2021/01/22 03:59:53;;;;;;;3.35;3.17;;;7.10;92.50;;;;;;4963491;28;87124;-84
2021/01/22 04:02:20;;;;;;;4.00;3.17;;;7.30;92.40;;;;;;4964696;28;87419;-84
2021/01/22 04:04:46;;;;;;;2.20;1.95;;;7.50;91.80;;;;;;4965273;28;86999;-84
2021/01/22 04:07:12;;;;;;;1.65;1.27;;;7.60;91.40;;;;;;4962532;28;86727;-83
2021/01/22 04:09:38;;;;;;;0.95;0.95;;;7.70;91.10;;;;;;4965530;28;86347;-83
2021/01/22 04:12:04;;;;;;;3.13;3.03;;;8.00;90.80;;;;;;4964771;28;87073;-84
2021/01/22 04:14:30;;;;;;;1.60;1.50;;;7.90;90.10;;;;;;4965522;28;87193;-84
2021/01/22 04:16:57;;;;;;;3.42;1.45;;;7.90;89.20;;;;;;4965303;28;87794;-82
2021/01/22 04:19:24;;;;;;;3.10;2.90;;;8.10;85.40;;;;;;4947182;28;87115;-84
2021/01/22 04:21:50;;;;;;;2.85;2.75;;;8.90;83.80;;;;;;4966177;28;88657;-84
2021/01/22 04:24:16;;;;;;;2.83;2.63;;;8.90;81.60;;;;;;4964826;28;87193;-85
2021/01/22 04:26:41;;;;;;;2.55;2.45;;;8.90;79.80;;;;;;4965937;28;87091;-84
2021/01/22 04:29:08;;;;;;;1.15;1.15;;;8.70;80.00;;;;;;4962901;28;87025;-86
2021/01/22 04:31:34;;;;;;;1.33;1.13;;;8.90;78.50;;;;;;4965455;28;86858;-85
2021/01/22 04:33:59;;;;;;;1.13;1.10;;;9.10;77.10;;;;;;4965586;28;86738;-85
2021/01/22 04:36:25;;;;;;;0.90;0.90;;;9.20;76.00;;;;;;4966003;28;86910;-85
2021/01/22 04:38:51;;;;;;;1.13;1.13;;;9.20;75.90;;;;;;4964241;28;87499;-86
2021/01/22 04:41:16;;;;;;;2.60;2.50;;;9.20;76.20;;;;;;4960655;28;89128;-85
2021/01/22 04:43:46;;;;;;;1.38;1.15;;;9.30;75.10;;;;;;4964083;28;88320;-85
2021/01/22 04:46:14;;;;;;;1.50;1.13;;;9.30;74.70;;;;;;4955708;28;86361;-85
2021/01/22 04:48:41;;;;;;;1.00;1.00;;;9.20;74.90;;;;;;4945348;28;86959;-85
2021/01/22 04:51:08;;;;;;;1.10;1.02;;;9.20;74.70;;;;;;4929123;28;90508;-85
2021/01/22 04:53:35;;;;;;;0.93;0.93;;;9.30;74.10;;;;;;4946130;28;86785;-83
2021/01/22 04:56:01;;;;;;;0.90;0.90;;;9.40;73.10;;;;;;4946893;28;87209;-86
2021/01/22 04:58:28;;;;;;;0.95;0.95;;;9.50;72.30;;;;;;4946985;28;85814;-86
2021/01/22 05:00:55;;;;;;;2.75;2.65;;;;;;;;;;4947655;28;87203;-86
2021/01/22 05:03:26;;;;;;;1.40;1.40;;;9.50;71.60;;;;;;4935502;28;87760;-85
2021/01/22 05:05:55;;;;;;;1.10;1.00;;;9.50;72.20;;;;;;4948897;28;87778;-86
2021/01/22 05:08:22;;;;;;;2.25;1.33;;;9.50;71.90;;;;;;4950998;28;86794;-85
2021/01/22 05:10:47;;;;;;;1.00;1.00;;;9.50;71.40;;;;;;4950861;28;87540;-86
2021/01/22 05:13:13;;;;;;;1.05;1.05;;;9.60;70.70;;;;;;4951108;28;86772;-85
2021/01/22 05:15:39;;;;;;;1.27;1.20;;;9.60;71.10;;;;;;4943639;28;86495;-85
2021/01/22 05:18:05;;;;;;;1.00;1.00;;;9.70;71.20;;;;;;4947191;28;86693;-85
2021/01/22 05:20:43;;;;;;;1.27;1.20;;;9.70;71.10;;;;;;4952595;28;87277;-86
2021/01/22 05:23:10;;;;;;;1.20;1.17;;;9.60;71.70;;;;;;4948310;28;88011;-85
2021/01/22 05:25:57;;;;;;;1.55;1.45;;;9.70;72.10;;;;;;4933684;28;86765;-85
2021/01/22 05:28:49;;;;;;;1.42;1.23;;;9.60;72.50;;;;;;4946049;28;86895;-84
2021/01/22 05:31:19;;;;;;;1.67;1.55;;;9.60;73.20;;;;;;4953547;28;88016;-85
2021/01/22 05:34:13;;;;;;;1.90;1.60;;;9.60;74.00;;;;;;4956231;28;87913;-84
2021/01/22 05:36:39;;;;;;;2.30;2.10;;;9.50;75.00;;;;;;4925848;28;86740;-86
2021/01/22 05:39:05;;;;;;;1.75;1.65;;;9.40;76.50;;;;;;4948730;28;87124;-85
2021/01/22 05:41:31;;;;;;;1.42;1.33;;;9.20;77.50;;;;;;4946617;28;87632;-84
2021/01/22 05:43:57;;;;;;;1.77;1.67;;;9.20;78.10;;;;;;4945742;28;87051;-82
2021/01/22 05:46:25;;;;;;;1.85;1.75;;;9.10;78.50;;;;;;4946363;28;86450;-83
2021/01/22 05:49:08;;;;;;;2.88;1.70;;;9.10;78.60;;;;;;4946753;28;86412;-83
2021/01/22 05:51:34;;;;;;;3.28;2.22;;;9.10;79.20;;;;;;4945760;28;87106;-83
2021/01/22 05:54:00;;;;;;;3.75;3.55;;;8.80;80.40;;;;;;4945135;28;87710;-83
2021/01/22 05:56:26;;;;;;;3.40;3.20;;;9.00;81.30;;;;;;4947685;28;87910;-83
2021/01/22 05:58:51;;;;;;;3.88;2.28;;;8.70;81.20;;;;;;4946717;28;86910;-82
2021/01/22 06:01:18;;;;;;;2.97;2.85;;;8.50;81.80;;;;;;4947097;28;86970;-83
2021/01/22 06:03:46;;;;;;;1.70;1.58;;;8.70;82.00;;;;;;4946780;28;87023;-82
2021/01/22 06:06:12;;;;;;;2.88;1.90;;;8.60;82.80;;;;;;4947522;28;86940;-82
2021/01/22 06:08:57;;;;;;;1.73;1.63;;;8.40;85.00;;;;;;4942089;28;86592;-82
2021/01/22 06:11:25;;;;;;;3.08;2.20;;;8.30;85.60;;;;;;4935308;28;86954;-83
2021/01/22 06:13:52;;;;;;;3.63;3.33;;;8.20;84.70;;;;;;4940883;28;87180;-83
2021/01/22 06:16:20;;;;;;;4.72;3.63;;;8.10;85.40;;;;;;4946892;28;86935;-81
2021/01/22 06:19:09;;;;;;;2.03;1.80;;;8.20;85.90;;;;;;4938719;28;87087;-82
2021/01/22 06:21:50;;;;;;;5.10;3.67;;;8.10;87.30;;;;;;4936753;28;88603;-82
2021/01/22 06:24:17;;;;;;;3.42;3.13;;;7.90;88.70;;;;;;4936919;28;87967;-82
2021/01/22 06:26:43;;;;;;;3.15;2.95;;;7.80;88.80;;;;;;4946415;28;86845;-82
2021/01/22 06:29:10;;;;;;;4.50;2.15;;;7.80;88.70;;;;;;4946151;28;86940;-79
2021/01/22 06:31:39;;;;;;;4.68;4.10;;;8.10;87.60;;;;;;4944989;28;87293;-82
2021/01/22 06:34:05;;;;;;;2.13;1.92;;;7.80;87.50;;;;;;4942749;28;87098;-80
2021/01/22 06:36:32;;;;;;;2.65;2.40;;;7.80;86.80;;;;;;4945544;28;87520;-81
2021/01/22 06:39:01;;;;;;;4.03;2.30;;;7.80;86.50;;;;;;4945965;28;85760;-80
2021/01/22 06:41:28;;;;;;;2.45;1.80;;;7.70;86.90;;;;;;4945782;28;87638;-82
2021/01/22 06:43:58;;;;;;;3.58;3.35;;;7.30;87.70;;;;;;4946142;28;86954;-82
2021/01/22 06:46:30;;;;;;;3.55;3.35;;;7.00;88.30;;;;;;4936627;28;87866;-82
2021/01/22 06:48:57;;;;;;;2.08;1.80;;;7.20;88.10;;;;;;4931360;28;86973;-82
2021/01/22 06:51:25;;;;;;;3.47;3.28;;;7.10;87.70;;;;;;4932710;28;87299;-82
2021/01/22 06:54:13;;;;;;;3.83;3.50;;;7.10;88.50;;;;;;4928722;28;87505;-83
2021/01/22 06:56:50;;;;;;;2.65;1.83;;;7.10;88.50;;;;;;4921620;28;86882;-84
2021/01/22 06:59:20;;;;;;;3.47;2.88;;;7.10;88.50;;;;;;4931879;28;86680;-83
2021/01/22 07:01:46;;;;;;;1.80;1.65;;;7.00;89.30;;;;;;4927884;28;87294;-84
2021/01/22 07:04:31;;;;;;;2.22;1.73;;;7.00;90.00;;;;;;4918225;28;86902;-81
2021/01/22 07:07:01;;;;;;;2.28;2.08;;;7.00;88.80;;;;;;4937170;28;86935;-82
2021/01/22 07:09:46;;;;;;;4.20;3.80;;;6.90;87.80;;;;;;4928323;28;87130;-82
2021/01/22 07:12:38;;;;;;;4.28;3.90;;;7.10;88.80;;;;;;4929192;28;87950;-82
2021/01/22 07:15:24;;;;;;;5.50;4.57;;;7.20;89.40;;;;;;4915506;28;86932;-82
2021/01/22 07:17:51;;;;;;;4.00;3.70;;;7.30;89.80;;;;;;4930591;28;87009;-82
2021/01/22 07:20:17;;;;;;;3.05;2.22;;;7.00;89.90;;;;;;4912972;28;86372;-83
2021/01/22 07:23:03;;;;;;;4.72;2.85;;;7.00;90.00;;;;;;4929254;28;88058;-82
2021/01/22 07:25:40;;;;;;;5.10;3.03;;;7.00;90.20;;;;;;4927577;28;87131;-82
2021/01/22 07:28:11;;;;;;;3.65;2.40;;;6.90;90.50;;;;;;4929737;28;87107;-82
2021/01/22 07:30:41;;;;;;;4.07;3.78;;;6.70;90.40;;;;;;4929626;28;86160;-83
2021/01/22 07:33:26;;;;;;;4.78;2.40;;;6.90;90.60;;;;;;4930017;28;86367;-83
2021/01/22 07:36:14;;;;;;;3.10;2.20;;;7.00;90.50;;;;;;4926661;28;86860;-82
2021/01/22 07:38:41;;;;;;;4.30;3.90;;;6.90;89.90;;;;;;4920217;28;87989;-83
2021/01/22 07:41:09;;;;;;;2.50;2.22;;;7.10;89.90;;;;;;4930851;28;87250;-83
2021/01/22 07:43:35;;;;;;;4.10;2.33;;;7.20;89.50;;;;;;4925012;28;88014;-83
2021/01/22 07:46:06;;;;;;;2.40;2.20;;;7.40;88.80;;;;;;4928377;28;87256;-82
2021/01/22 07:48:32;;;;;;;5.28;4.00;;;;;;;;;;4926334;28;86940;-83
2021/01/22 07:50:58;;;;;;;4.40;2.40;;;7.50;87.90;;;;;;4928928;28;87064;-83
2021/01/22 07:53:24;;;;;;;4.20;2.75;;;7.50;87.90;;;;;;4926256;28;87090;-82
2021/01/22 07:55:54;;;;;;;6.15;4.13;;;7.70;87.80;;;;;;4933972;28;86927;-83
2021/01/22 07:58:20;;;;;;;5.22;3.00;;;7.60;87.70;;;;;;4926937;28;87066;-82
2021/01/22 08:01:05;;;;;;;4.75;4.07;;;7.30;88.30;;;;;;4940170;28;86759;-81
2021/01/22 08:03:51;;;;;;;4.65;2.80;;;7.60;88.00;;;;;;4944687;28;89473;-83
2021/01/22 08:06:17;;;;;;;6.68;4.70;;;8.00;87.90;;;;;;4937693;28;88361;-83
2021/01/22 08:08:42;;;;;;;6.40;3.00;;;7.80;87.20;;;;;;4943410;28;86589;-83
2021/01/22 08:11:20;;;;;;;5.60;4.80;;;8.60;86.40;;;;;;4927370;28;86742;-83
2021/01/22 08:13:46;;;;;;;6.13;4.30;;;8.50;84.30;;;;;;4936448;28;87238;-81
2021/01/22 08:16:20;;;;;;;7.28;4.75;;;8.80;83.00;;;;;;4942007;28;86994;-83
2021/01/22 08:18:46;;;;;;;7.35;6.10;;;8.90;83.30;;;;;;4947467;28;87006;-82
2021/01/22 08:21:12;;;;;;;6.05;3.53;;;8.60;83.40;;;;;;4944193;28;86381;-83
2021/01/22 08:23:42;;;;;;;7.90;5.28;;;8.00;84.90;;;;;;4930634;28;87500;-83
2021/01/22 08:26:11;;;;;;;5.57;5.07;;;8.60;85.10;;;;;;4930579;28;87447;-83
2021/01/22 08:28:41;;;;;;;4.97;4.47;;;8.20;84.50;;;;;;4925919;28;87907;-83
2021/01/22 08:31:08;;;;;;;6.40;4.05;;;8.30;83.50;;;;;;4932579;28;86979;-83
2021/01/22 08:33:35;;;;;;;6.13;5.53;;;8.30;83.20;;;;;;4931288;28;87760;-82
2021/01/22 08:36:01;;;;;;;6.68;5.43;;;8.90;82.70;;;;;;4917805;28;88485;-83
2021/01/22 08:38:27;;;;;;;2.30;2.10;;;8.50;82.70;;;;;;4931631;28;86893;-83
2021/01/22 08:40:53;;;;;;;1.85;1.70;;;9.10;78.30;;;;;;4936135;28;86914;-84
2021/01/22 08:43:19;;;;;;;1.02;1.02;;;10.00;72.10;;;;;;4932285;28;86944;-83
2021/01/22 08:46:24;;;;;;;2.75;2.65;;;11.50;64.30;;;;;;4942135;28;86847;-83
2021/01/22 08:48:50;;;;;;;2.50;2.40;;;11.60;63.30;;;;;;4870426;28;87259;-84
2021/01/22 08:51:26;;;;;;;2.35;2.25;;;12.40;60.20;;;;;;4867891;28;86804;-83
2021/01/22 08:53:53;;;;;;;2.80;2.70;;;12.50;60.40;;;;;;4908636;28;87965;-84
2021/01/22 08:56:22;;;;;;;2.95;2.75;;;13.00;57.30;;;;;;4946065;28;87065;-84
2021/01/22 08:59:04;;;;;;;2.40;2.30;;;13.10;55.80;;;;;;4946339;28;86712;-84
2021/01/22 09:02:05;;;;;;;2.47;2.38;;;13.60;55.90;;;;;;4945264;28;87067;-83
2021/01/22 09:04:31;;;;;;;2.60;2.50;;;14.20;53.90;;;;;;4844816;29;87488;-85
2021/01/22 09:07:00;;;;;;;1.33;1.23;;;14.10;52.90;;;;;;4924487;28;87055;-85
2021/01/22 09:09:44;;;;;;;2.10;2.10;;;14.40;52.30;;;;;;4946471;28;87019;-84
2021/01/22 09:12:24;;;;;;;2.22;2.13;;;13.90;52.00;;;;;;4946618;28;86239;-85
2021/01/22 09:14:59;;;;;;;2.30;2.20;;;14.60;50.90;;;;;;4948094;28;87815;-84
2021/01/22 09:17:50;;;;;;;2.38;2.28;;;14.70;50.40;;;;;;4944850;28;86762;-84
2021/01/22 09:20:21;;;;;;;2.97;2.78;;;14.20;50.20;;;;;;4944223;28;88076;-85
2021/01/22 09:22:50;;;;;;;2.85;2.75;;;14.20;49.90;;;;;;4945483;28;87225;-85
2021/01/22 09:25:18;;;;;;;2.53;2.28;;;14.20;49.60;;;;;;4944984;28;87721;-84
2021/01/22 09:27:45;;;;;;;2.60;2.45;;;14.00;49.90;;;;;;4944355;28;87296;-84
2021/01/22 09:30:18;;;;;;;2.33;2.22;;;14.10;49.80;;;;;;4943426;28;87096;-83
2021/01/22 09:32:50;;;;;;;2.47;2.38;;;14.10;49.60;;;;;;4926751;28;87968;-84
2021/01/22 09:35:17;;;;;;;1.10;1.10;;;14.30;49.70;;;;;;4944004;28;87255;-84
2021/01/22 09:37:43;;;;;;;2.67;2.58;;;14.40;48.60;;;;;;4928506;28;88429;-85
2021/01/22 09:40:10;;;;;;;2.60;2.50;;;14.10;49.40;;;;;;4944809;28;86980;-84
2021/01/22 09:42:36;;;;;;;2.70;2.60;;;13.90;48.40;;;;;;4944985;28;87163;-84
2021/01/22 09:45:06;;;;;;;1.30;1.20;;;13.90;49.00;;;;;;4946387;28;87917;-84
2021/01/22 09:47:32;;;;;;;2.83;2.63;;;14.10;48.10;;;;;;4935099;28;89740;-86
2021/01/22 09:49:58;;;;;;;1.13;1.13;;;14.00;48.40;;;;;;4930384;28;87057;-84
2021/01/22 09:52:23;;;;;;;0.90;0.90;;;14.30;47.30;;;;;;4939428;28;86998;-84
2021/01/22 09:54:49;;;;;;;2.80;2.70;;;14.50;47.30;;;;;;4935840;28;87180;-84
2021/01/22 09:57:15;;;;;;;2.92;2.83;;;14.90;46.80;;;;;;4939579;28;86840;-84
2021/01/22 09:59:41;;;;;;;2.65;2.55;;;15.10;46.00;;;;;;4938240;28;87144;-85
2021/01/22 10:02:08;;;;;;;2.60;2.50;;;15.10;45.90;;;;;;4910049;28;86497;-85
2021/01/22 10:04:36;;;;;;;2.47;2.38;;;15.20;45.50;;;;;;4931079;28;87692;-86
2021/01/22 10:07:05;;;;;;;2.72;2.63;;;15.80;45.40;;;;;;4938430;28;87374;-84
2021/01/22 10:09:32;;;;;;;2.70;2.60;;;16.00;44.20;;;;;;4932751;28;88012;-87
2021/01/22 10:11:58;;;;;;;2.78;2.67;;;16.10;43.80;;;;;;4934157;28;86522;-84
2021/01/22 10:14:24;;;;;;;2.67;2.55;;;16.00;43.80;;;;;;4930879;28;87310;-86
2021/01/22 10:16:52;;;;;;;2.88;2.45;;;15.30;44.90;;;;;;4935789;28;86662;-85
2021/01/22 10:19:18;;;;;;;2.80;2.70;;;14.90;44.80;;;;;;4909144;28;86976;-85
2021/01/22 10:21:44;;;;;;;2.55;2.45;;;14.60;45.70;;;;;;4931330;28;86515;-84
2021/01/22 10:24:10;;;;;;;2.85;2.75;;;14.50;45.90;;;;;;4929383;28;88147;-85
2021/01/22 10:26:35;;;;;;;2.80;2.70;;;14.80;45.70;;;;;;4931056;28;86255;-85
2021/01/22 10:29:01;;;;;;;2.92;2.70;;;15.20;45.80;;;;;;4934628;28;87177;-84
2021/01/22 10:31:27;;;;;;;1.23;1.20;;;15.50;45.30;;;;;;4934400;28;86862;-83
2021/01/22 10:33:52;;;;;;;3.33;3.13;;;15.80;44.70;;;;;;4933144;28;87813;-84
2021/01/22 10:36:18;;;;;;;1.42;1.33;;;15.80;44.50;;;;;;4939098;28;87097;-84
2021/01/22 10:38:44;;;;;;;1.60;1.42;;;15.90;44.00;;;;;;4934457;28;86667;-84
2021/01/22 10:41:10;;;;;;;2.92;2.83;;;15.70;43.30;;;;;;4939995;28;87371;-84
2021/01/22 10:43:36;;;;;;;2.55;2.45;;;15.70;43.50;;;;;;4931574;28;87247;-85
2021/01/22 10:46:02;;;;;;;2.70;2.60;;;15.40;42.80;;;;;;4940159;28;86960;-84
2021/01/22 10:48:28;;;;;;;1.00;1.00;;;15.30;43.40;;;;;;4937931;28;86966;-85
2021/01/22 10:50:54;;;;;;;2.53;2.42;;;15.50;43.20;;;;;;4940187;28;85887;-84
2021/01/22 10:53:23;;;;;;;1.52;1.13;;;15.60;42.20;;;;;;4934328;28;86929;-85
2021/01/22 10:55:49;;;;;;;2.88;2.67;;;15.50;42.40;;;;;;4933736;28;86842;-85
2021/01/22 10:58:15;;;;;;;2.65;2.55;;;15.50;42.10;;;;;;4938574;28;87365;-85
2021/01/22 11:00:41;;;;;;;2.30;2.15;;;15.30;41.60;;;;;;4935969;28;86497;-85
2021/01/22 11:03:07;;;;;;;2.50;2.35;;;15.40;42.30;;;;;;4936601;28;86842;-85
2021/01/22 11:05:33;;;;;;;2.50;2.40;;;15.80;42.10;;;;;;4928692;28;87443;-86
2021/01/22 11:07:59;;;;;;;3.00;2.90;;;15.70;42.40;;;;;;4934078;28;86938;-85
2021/01/22 11:10:25;;;;;;;2.40;2.30;;;16.10;42.00;;;;;;4929699;28;87240;-85
2021/01/22 11:12:52;;;;;;;2.60;2.50;;;16.30;39.90;;;;;;4932179;28;87577;-84
2021/01/22 11:15:19;;;;;;;3.55;3.35;;;16.40;41.60;;;;;;4926822;28;86249;-86
2021/01/22 11:17:45;;;;;;;2.85;2.75;;;16.60;42.10;;;;;;4936581;28;86999;-85
2021/01/22 11:20:12;;;;;;;2.95;2.85;;;16.60;41.00;;;;;;4930195;28;87024;-84
2021/01/22 11:22:38;;;;;;;2.58;2.47;;;16.40;40.50;;;;;;4927053;28;88436;-82
2021/01/22 11:25:05;;;;;;;3.40;3.10;;;16.40;40.40;;;;;;4927546;28;88394;-82
2021/01/22 11:27:31;;;;;;;2.58;1.52;;;16.70;41.00;;;;;;4924091;28;86889;-84
2021/01/22 11:29:57;;;;;;;2.70;2.60;;;17.10;39.50;;;;;;4927931;28;87104;-86
2021/01/22 11:32:23;;;;;;;2.35;2.25;;;16.70;40.30;;;;;;4928578;28;87855;-84
2021/01/22 11:34:50;;;;;;;2.63;2.50;;;16.30;40.00;;;;;;4938604;28;86983;-86
2021/01/22 11:37:15;;;;;;;2.72;2.63;;;16.20;40.20;;;;;;4926957;28;86835;-84
2021/01/22 11:39:41;;;;;;;2.50;2.40;;;16.00;39.30;;;;;;4929690;28;85916;-83
2021/01/22 11:42:09;;;;;;;2.50;2.40;;;15.90;39.70;;;;;;4929798;28;86532;-81
2021/01/22 11:44:36;;;;;;;1.00;1.00;;;15.90;39.60;;;;;;4934454;28;87316;-84
2021/01/22 11:47:01;;;;;;;3.30;3.20;;;15.50;39.70;;;;;;4936835;28;87329;-83
2021/01/22 11:49:27;;;;;;;0.90;0.90;;;15.40;39.80;;;;;;4929659;28;87010;-84
2021/01/22 11:51:53;;;;;;;2.50;2.40;;;15.40;39.70;;;;;;4927153;28;87124;-84
2021/01/22 11:54:19;;;;;;;2.33;2.22;;;15.30;40.30;;;;;;4929675;28;87323;-86
2021/01/22 11:56:50;;;;;;;3.00;2.75;;;15.20;39.80;;;;;;4934060;28;86998;-84
2021/01/22 11:59:17;;;;;;;2.40;2.35;;;15.00;40.60;;;;;;4929064;28;87069;-85
2021/01/22 12:01:43;;;;;;;2.67;2.58;;;14.80;40.50;;;;;;4922711;28;87065;-84
2021/01/22 12:04:09;;;;;;;1.13;1.10;;;14.70;40.80;;;;;;4928319;28;86947;-85
2021/01/22 12:06:34;;;;;;;2.30;2.20;;;14.70;40.80;;;;;;4931508;28;87016;-84
2021/01/22 12:09:00;;;;;;;2.42;2.33;;;14.80;39.70;;;;;;4927906;28;86684;-85
2021/01/22 12:11:28;;;;;;;2.40;2.17;;;14.80;39.90;;;;;;4925701;28;88510;-85
2021/01/22 12:13:54;;;;;;;2.85;2.75;;;14.90;40.10;;;;;;4921227;28;87902;-83
2021/01/22 12:16:20;;;;;;;2.70;2.60;;;14.60;40.30;;;;;;4929518;28;86906;-85
2021/01/22 12:18:47;;;;;;;0.90;0.90;;;14.70;40.10;;;;;;4931094;28;86967;-83
2021/01/22 12:21:13;;;;;;;1.10;1.10;;;14.60;40.80;;;;;;4930519;28;87587;-84
2021/01/22 12:23:41;;;;;;;1.10;1.10;;;14.60;40.40;;;;;;4923914;28;87467;-84
2021/01/22 12:26:11;;;;;;;2.60;2.50;;;14.60;40.10;;;;;;4925086;28;87520;-85
2021/01/22 12:28:38;;;;;;;2.42;2.33;;;14.50;40.80;;;;;;4930179;28;86738;-85
2021/01/22 12:31:05;;;;;;;2.60;2.50;;;14.40;40.40;;;;;;4927182;28;87061;-84
2021/01/22 12:33:31;;;;;;;2.70;2.60;;;14.40;40.40;;;;;;4926546;28;87412;-85
2021/01/22 12:35:57;;;;;;;2.17;2.10;;;14.30;40.40;;;;;;4930169;28;87967;-84
2021/01/22 12:38:23;;;;;;;3.13;3.03;;;14.30;40.70;;;;;;4923979;28;87115;-84
2021/01/22 12:40:49;;;;;;;1.65;1.20;;;14.20;41.00;;;;;;4926437;28;86888;-84
2021/01/22 12:43:15;;;;;;;1.10;1.10;;;14.20;41.10;;;;;;4932324;28;87301;-84
2021/01/22 12:45:41;;;;;;;3.13;3.03;;;14.20;40.70;;;;;;4933397;28;87076;-84
2021/01/22 12:48:07;;;;;;;1.10;1.10;;;14.20;40.80;;;;;;4931472;28;86592;-85
2021/01/22 12:50:33;;;;;;;0.73;0.73;;;14.10;40.90;;;;;;4928353;28;86462;-84
2021/01/22 12:52:59;;;;;;;1.40;1.30;;;14.10;40.40;;;;;;4914825;28;86960;-84
2021/01/22 12:55:25;;;;;;;1.30;1.30;;;14.20;40.90;;;;;;4923750;28;87038;-84
2021/01/22 12:57:51;;;;;;;1.15;1.15;;;14.10;41.60;;;;;;4924225;28;87020;-84
2021/01/22 13:00:18;;;;;;;3.13;3.03;;;13.80;40.60;;;;;;4926072;28;89255;-84
2021/01/22 13:02:44;;;;;;;4.22;2.65;;;14.10;41.10;;;;;;4914331;28;91410;-85
2021/01/22 13:05:14;;;;;;;1.42;1.33;;;14.20;41.20;;;;;;4938402;28;86991;-84
2021/01/22 13:07:44;;;;;;;3.08;2.97;;;14.30;40.50;;;;;;4927191;28;87543;-83
2021/01/22 13:10:11;;;;;;;2.95;2.85;;;13.90;40.70;;;;;;4932755;28;86954;-84
2021/01/22 13:12:37;;;;;;;4.85;1.27;;;14.10;41.10;;;;;;4939450;28;87173;-81
2021/01/22 13:15:04;;;;;;;3.15;3.05;;;14.40;40.10;;;;;;4946157;28;86200;-82
2021/01/22 13:17:30;;;;;;;3.50;3.30;;;13.90;40.40;;;;;;4938743;28;85610;-83
2021/01/22 13:19:56;;;;;;;0.88;0.88;;;14.20;41.20;;;;;;4936400;28;87078;-81
2021/01/22 13:22:22;;;;;;;2.47;2.38;;;14.20;40.40;;;;;;4938408;28;86634;-81
2021/01/22 13:24:48;;;;;;;3.67;3.38;;;14.10;39.70;;;;;;4938316;28;87620;-83
2021/01/22 13:27:13;;;;;;;3.88;3.55;;;14.20;40.20;;;;;;4940738;28;86770;-82
2021/01/22 13:29:39;;;;;;;3.70;3.35;;;14.10;40.80;;;;;;4933283;28;87639;-84
2021/01/22 13:32:05;;;;;;;1.02;1.02;;;14.20;41.20;;;;;;4932677;28;87889;-83
2021/01/22 13:34:31;;;;;;;1.20;1.10;;;14.20;41.00;;;;;;4934080;28;86961;-83
2021/01/22 13:36:57;;;;;;;1.35;1.17;;;14.20;41.30;;;;;;4933110;28;87109;-83
2021/01/22 13:39:22;;;;;;;1.00;1.00;;;14.20;41.30;;;;;;4933880;28;87037;-83
2021/01/22 13:41:48;;;;;;;4.90;4.30;;;14.20;41.40;;;;;;4933544;28;86334;-83
2021/01/22 13:44:14;;;;;;;3.80;3.50;;;14.20;42.60;;;;;;4906235;28;86947;-83
2021/01/22 13:46:40;;;;;;;3.13;3.03;;;14.20;41.00;;;;;;4934527;28;86901;-84
2021/01/22 13:49:05;;;;;;;0.80;0.80;;;14.20;41.50;;;;;;4943856;28;88118;-83
2021/01/22 13:51:31;;;;;;;1.35;1.30;;;14.20;41.60;;;;;;4949726;28;88381;-83
2021/01/22 13:53:57;;;;;;;0.80;0.80;;;14.30;41.00;;;;;;4968244;28;86859;-82
2021/01/22 13:56:23;;;;;;;1.90;1.80;;;14.40;41.00;;;;;;4953687;28;87073;-81
2021/01/22 13:58:49;;;;;;;1.67;1.58;;;14.50;41.20;;;;;;4949636;28;87561;-80
2021/01/22 14:01:15;;;;;;;3.70;3.40;;;14.10;50.70;;;;;;4960740;28;86922;-82
2021/01/22 14:03:41;;;;;;;3.78;3.42;;;13.40;54.50;;;;;;4945926;28;87152;-82
2021/01/22 14:06:07;;;;;;;2.60;2.08;;;13.50;53.30;;;;;;4944954;28;86564;-80
2021/01/22 14:08:33;;;;;;;4.03;3.72;;;13.20;54.70;;;;;;4968273;28;87210;-82
2021/01/22 14:10:58;;;;;;;2.65;2.45;;;12.80;56.90;;;;;;4940155;28;88149;-82
2021/01/22 14:13:24;;;;;;;4.13;3.88;;;12.30;57.80;;;;;;4949542;28;87176;-84
2021/01/22 14:15:50;;;;;;;4.43;2.13;;;12.20;58.00;;;;;;4941061;28;86374;-81
2021/01/22 14:18:16;;;;;;;4.38;4.05;;;12.10;58.50;;;;;;4944170;28;87071;-83
2021/01/22 14:20:41;;;;;;;2.72;2.38;;;12.00;58.90;;;;;;4946421;28;87078;-83
2021/01/22 14:23:07;;;;;;;2.60;2.40;;;11.80;59.80;;;;;;4947882;28;86976;-83
2021/01/22 14:25:33;;;;;;;3.90;2.55;;;11.80;59.80;;;;;;4947632;28;86786;-84
2021/01/22 14:27:59;;;;;;;2.28;2.00;;;11.80;59.30;;;;;;4944676;28;87248;-82
2021/01/22 14:30:25;;;;;;;3.67;3.47;;;11.90;59.20;;;;;;4952010;28;86440;-82
2021/01/22 14:32:50;;;;;;;3.72;3.53;;;11.90;59.50;;;;;;4947057;28;86506;-83
2021/01/22 14:35:16;;;;;;;3.80;3.50;;;11.70;60.20;;;;;;4930851;28;87449;-83
2021/01/22 14:37:43;;;;;;;4.30;3.90;;;;;;;;;;4946221;28;89096;-85
2021/01/22 14:40:09;;;;;;;6.78;4.80;;;11.70;59.70;;;;;;4941576;28;88190;-85
2021/01/22 14:42:35;;;;;;;5.55;4.30;;;11.70;60.00;;;;;;4945651;28;86960;-84
2021/01/22 14:45:00;;;;;;;4.53;3.67;;;11.70;60.10;;;;;;4945469;28;86981;-81
2021/01/22 14:47:26;;;;;;;5.00;4.50;;;11.60;60.90;;;;;;4934473;28;87207;-84
2021/01/22 14:49:52;;;;;;;4.22;3.13;;;11.50;60.90;;;;;;4926599;28;86932;-82
2021/01/22 14:52:18;;;;;;;4.63;4.22;;;11.40;62.00;;;;;;4927353;28;86767;-83
2021/01/22 14:54:51;;;;;;;4.88;4.47;;;11.40;61.50;;;;;;4928026;28;86133;-82
2021/01/22 14:57:17;;;;;;;5.95;5.10;;;11.40;61.50;;;;;;4927735;28;86990;-82
2021/01/22 14:59:43;;;;;;;3.85;2.72;;;11.40;61.70;;;;;;4926990;28;86968;-84
2021/01/22 15:02:09;;;;;;;5.93;5.38;;;11.30;61.80;;;;;;4923782;28;88042;-80
2021/01/22 15:04:36;;;;;;;5.72;3.80;;;11.30;62.30;;;;;;4922805;28;87023;-80
2021/01/22 15:07:02;;;;;;;5.18;4.57;;;11.30;62.40;;;;;;4922313;28;86998;-82
2021/01/22 15:09:27;;;;;;;6.50;4.30;;;11.60;62.30;;;;;;4925515;28;87765;-82
2021/01/22 15:11:53;;;;;;;4.57;4.10;;;11.20;62.50;;;;;;4924853;28;86976;-80
2021/01/22 15:14:19;;;;;;;5.38;4.63;;;11.30;62.60;;;;;;4925673;28;87148;-81
2021/01/22 15:16:45;;;;;;;4.20;3.72;;;11.30;62.50;;;;;;4929741;28;87032;-82
2021/01/22 15:19:10;;;;;;;4.18;3.88;;;11.30;62.50;;;;;;4926713;28;87296;-81
2021/01/22 15:21:36;;;;;;;4.32;3.92;;;11.20;62.70;;;;;;4927142;28;86982;-84
2021/01/22 15:24:02;;;;;;;4.38;4.07;;;11.20;62.40;;;;;;4926039;28;88032;-84
2021/01/22 15:26:28;;;;;;;4.88;4.22;;;11.10;62.30;;;;;;4927872;28;88778;-84
2021/01/22 15:28:53;;;;;;;2.10;1.90;;;11.00;62.80;;;;;;4930644;28;88234;-84
2021/01/22 15:31:20;;;;;;;4.43;4.10;;;10.80;63.20;;;;;;4926561;28;87229;-85
2021/01/22 15:33:47;;;;;;;4.25;3.95;;;10.60;63.90;;;;;;4924451;28;86915;-85
2021/01/22 15:36:12;;;;;;;4.68;4.28;;;10.50;64.50;;;;;;4927528;28;86860;-85
2021/01/22 15:38:38;;;;;;;4.70;4.30;;;10.40;64.80;;;;;;4925141;28;87027;-83
2021/01/22 15:41:04;;;;;;;4.53;4.10;;;10.30;65.20;;;;;;4909496;28;87125;-83
2021/01/22 15:43:30;;;;;;;4.75;4.35;;;10.20;65.40;;;;;;4925942;28;86239;-84
2021/01/22 15:45:56;;;;;;;4.95;4.47;;;10.20;66.10;;;;;;4927033;28;87658;-83
2021/01/22 15:48:22;;;;;;;7.75;4.47;;;9.90;66.00;;;;;;4932211;28;86984;-82
2021/01/22 15:50:49;;;;;;;5.82;4.20;;;9.90;66.80;;;;;;4936698;28;88467;-83
2021/01/22 15:53:16;;;;;;;10.68;8.40;;;9.60;67.60;;;;;;4940172;28;86636;-83
2021/01/22 15:55:42;;;;;;;8.77;7.97;;;9.80;68.40;;;;;;4927812;28;90829;-83
2021/01/22 15:58:08;;;;;;;6.97;6.28;;;9.60;68.10;;;;;;4932445;28;87335;-83
2021/01/22 16:00:34;;;;;;;5.60;5.10;;;9.60;68.40;;;;;;4925123;28;86464;-83
2021/01/22 16:02:59;;;;;;;3.38;3.08;;;9.50;68.70;;;;;;4927711;28;86908;-83
2021/01/22 16:05:25;;;;;;;5.75;5.25;;;9.40;69.10;;;;;;4932062;28;87437;-83
2021/01/22 16:07:51;;;;;;;8.18;5.43;;;9.20;70.90;;;;;;4931714;28;87290;-83
2021/01/22 16:10:17;;;;;;;6.78;5.78;;;9.00;72.20;;;;;;4928990;28;87102;-83
2021/01/22 16:12:43;;;;;;;7.63;5.60;;;8.90;71.70;;;;;;4923358;28;87241;-83
2021/01/22 16:15:09;;;;;;;5.57;5.07;;;8.90;72.20;;;;;;4929858;28;88260;-83
2021/01/22 16:17:35;;;;;;;6.38;5.60;;;8.80;72.70;;;;;;4930945;28;87557;-83
2021/01/22 16:20:00;;;;;;;7.38;6.68;;;8.70;73.80;;;;;;4929093;28;87074;-83
2021/01/22 16:22:26;;;;;;;8.23;6.40;;;8.40;75.60;;;;;;4927494;28;86696;-82
2021/01/22 16:24:52;;;;;;;7.30;6.25;;;8.50;75.10;;;;;;4919616;28;87060;-83
2021/01/22 16:27:17;;;;;;;6.88;6.25;;;8.40;75.40;;;;;;4928934;28;86989;-83
2021/01/22 16:29:43;;;;;;;7.10;6.25;;;8.30;76.00;;;;;;4925885;28;86924;-83
2021/01/22 16:32:09;;;;;;;6.75;5.75;;;8.30;76.30;;;;;;4923016;28;86315;-83
2021/01/22 16:34:34;;;;;;;8.75;7.28;;;8.20;77.30;;;;;;4927617;28;87217;-84
2021/01/22 16:37:00;;;;;;;11.73;8.63;;;8.10;77.80;;;;;;4908882;28;88247;-84
2021/01/22 16:39:26;;;;;;;11.10;7.97;;;8.00;79.00;;;;;;4927046;28;87294;-84
2021/01/22 16:41:51;;;;;;;14.98;9.77;;;7.50;80.60;;;;;;4928666;28;87513;-84
2021/01/22 16:44:17;;;;;;;15.00;9.20;;;7.80;81.10;;;;;;4924511;28;86983;-82